sensor_id;sensor_type;location;lat;lon;timestamp;P1;durP1;ratioP1;P2;durP2;ratioP2
65853;SDS011;52627;48.838;2.402;2023-01-29T00:02:18;28.70;;;13.40;;
65853;SDS011;52627;48.838;2.402;2023-01-29T00:04:45;31.30;;;15.10;;
65853;SDS011;52627;48.838;2.402;2023-01-29T00:07:13;28.80;;;14.60;;
65853;SDS011;52627;48.838;2.402;2023-01-29T00:09:40;27.60;;;14.00;;
65853;SDS011;52627;48.838;2.402;2023-01-29T00:12:08;28.70;;;13.40;;
65853;SDS011;52627;48.838;2.402;2023-01-29T00:14:35;29.80;;;14.80;;
65853;SDS011;52627;48.838;2.402;2023-01-29T00:17:03;28.20;;;13.60;;
65853;SDS011;52627;48.838;2.402;2023-01-29T00:19:30;31.80;;;14.90;;
65853;SDS011;52627;48.838;2.402;2023-01-29T00:21:57;30.00;;;14.40;;
65853;SDS011;52627;48.838;2.402;2023-01-29T00:24:25;28.80;;;13.30;;
65853;SDS011;52627;48.838;2.402;2023-01-29T00:26:52;31.50;;;15.00;;
65853;SDS011;52627;48.838;2.402;2023-01-29T00:29:20;30.00;;;14.70;;
65853;SDS011;52627;48.838;2.402;2023-01-29T00:31:48;30.80;;;15.10;;
65853;SDS011;52627;48.838;2.402;2023-01-29T00:34:16;30.30;;;15.20;;
65853;SDS011;52627;48.838;2.402;2023-01-29T00:36:43;29.60;;;14.80;;
65853;SDS011;52627;48.838;2.402;2023-01-29T00:39:11;34.00;;;15.00;;
65853;SDS011;52627;48.838;2.402;2023-01-29T00:41:39;31.60;;;14.50;;
65853;SDS011;52627;48.838;2.402;2023-01-29T00:44:25;30.30;;;15.20;;
65853;SDS011;52627;48.838;2.402;2023-01-29T00:47:11;30.30;;;15.50;;
65853;SDS011;52627;48.838;2.402;2023-01-29T00:49:57;30.40;;;15.00;;
65853;SDS011;52627;48.838;2.402;2023-01-29T00:52:25;32.90;;;15.90;;
65853;SDS011;52627;48.838;2.402;2023-01-29T00:54:55;34.20;;;15.20;;
65853;SDS011;52627;48.838;2.402;2023-01-29T00:57:25;30.70;;;15.40;;
65853;SDS011;52627;48.838;2.402;2023-01-29T00:59:53;33.30;;;15.40;;
65853;SDS011;52627;48.838;2.402;2023-01-29T01:02:21;32.00;;;14.90;;
65853;SDS011;52627;48.838;2.402;2023-01-29T01:05:09;27.50;;;13.70;;
65853;SDS011;52627;48.838;2.402;2023-01-29T01:07:40;30.30;;;16.10;;
65853;SDS011;52627;48.838;2.402;2023-01-29T01:10:13;33.00;;;16.20;;
65853;SDS011;52627;48.838;2.402;2023-01-29T01:15:38;32.40;;;15.20;;
65853;SDS011;52627;48.838;2.402;2023-01-29T01:18:06;30.30;;;14.70;;
65853;SDS011;52627;48.838;2.402;2023-01-29T01:20:35;31.60;;;14.90;;
65853;SDS011;52627;48.838;2.402;2023-01-29T01:23:03;31.10;;;14.50;;
65853;SDS011;52627;48.838;2.402;2023-01-29T01:25:30;36.60;;;15.70;;
65853;SDS011;52627;48.838;2.402;2023-01-29T01:27:58;29.70;;;15.00;;
65853;SDS011;52627;48.838;2.402;2023-01-29T01:30:25;33.20;;;16.20;;
65853;SDS011;52627;48.838;2.402;2023-01-29T01:32:53;30.80;;;15.30;;
65853;SDS011;52627;48.838;2.402;2023-01-29T01:35:20;32.20;;;16.00;;
65853;SDS011;52627;48.838;2.402;2023-01-29T01:37:48;31.90;;;17.00;;
65853;SDS011;52627;48.838;2.402;2023-01-29T01:40:21;32.60;;;14.90;;
65853;SDS011;52627;48.838;2.402;2023-01-29T01:42:57;31.40;;;15.10;;
65853;SDS011;52627;48.838;2.402;2023-01-29T01:45:35;31.60;;;15.70;;
65853;SDS011;52627;48.838;2.402;2023-01-29T01:48:10;35.50;;;16.60;;
65853;SDS011;52627;48.838;2.402;2023-01-29T01:50:44;32.40;;;15.40;;
65853;SDS011;52627;48.838;2.402;2023-01-29T01:53:33;30.10;;;14.70;;
65853;SDS011;52627;48.838;2.402;2023-01-29T01:56:20;33.70;;;16.20;;
65853;SDS011;52627;48.838;2.402;2023-01-29T01:58:55;32.80;;;15.50;;
65853;SDS011;52627;48.838;2.402;2023-01-29T02:01:25;35.20;;;16.10;;
65853;SDS011;52627;48.838;2.402;2023-01-29T02:04:00;33.90;;;15.30;;
65853;SDS011;52627;48.838;2.402;2023-01-29T02:09:39;34.20;;;15.60;;
65853;SDS011;52627;48.838;2.402;2023-01-29T02:12:13;34.40;;;16.10;;
65853;SDS011;52627;48.838;2.402;2023-01-29T02:14:43;31.90;;;15.10;;
65853;SDS011;52627;48.838;2.402;2023-01-29T02:17:13;35.80;;;17.60;;
65853;SDS011;52627;48.838;2.402;2023-01-29T02:23:14;36.40;;;17.20;;
65853;SDS011;52627;48.838;2.402;2023-01-29T02:26:12;37.10;;;16.10;;
65853;SDS011;52627;48.838;2.402;2023-01-29T02:31:36;33.60;;;15.50;;
65853;SDS011;52627;48.838;2.402;2023-01-29T02:34:59;35.60;;;16.70;;
65853;SDS011;52627;48.838;2.402;2023-01-29T02:37:49;32.60;;;15.70;;
65853;SDS011;52627;48.838;2.402;2023-01-29T02:40:52;31.10;;;17.00;;
65853;SDS011;52627;48.838;2.402;2023-01-29T02:43:47;32.60;;;15.50;;
65853;SDS011;52627;48.838;2.402;2023-01-29T02:46:29;34.10;;;16.70;;
65853;SDS011;52627;48.838;2.402;2023-01-29T02:52:08;35.00;;;17.50;;
65853;SDS011;52627;48.838;2.402;2023-01-29T02:54:44;33.10;;;16.30;;
65853;SDS011;52627;48.838;2.402;2023-01-29T02:57:20;32.00;;;15.30;;
65853;SDS011;52627;48.838;2.402;2023-01-29T03:02:48;31.10;;;15.90;;
65853;SDS011;52627;48.838;2.402;2023-01-29T03:08:17;29.80;;;14.70;;
65853;SDS011;52627;48.838;2.402;2023-01-29T03:11:11;33.70;;;17.00;;
65853;SDS011;52627;48.838;2.402;2023-01-29T03:13:56;32.80;;;16.20;;
65853;SDS011;52627;48.838;2.402;2023-01-29T03:16:29;33.80;;;16.10;;
65853;SDS011;52627;48.838;2.402;2023-01-29T03:19:04;33.80;;;16.00;;
65853;SDS011;52627;48.838;2.402;2023-01-29T03:21:40;35.10;;;16.80;;
65853;SDS011;52627;48.838;2.402;2023-01-29T03:24:52;33.90;;;16.70;;
65853;SDS011;52627;48.838;2.402;2023-01-29T03:27:44;33.30;;;17.00;;
65853;SDS011;52627;48.838;2.402;2023-01-29T03:30:36;29.80;;;16.00;;
65853;SDS011;52627;48.838;2.402;2023-01-29T03:33:34;31.60;;;16.20;;
65853;SDS011;52627;48.838;2.402;2023-01-29T03:37:04;34.10;;;16.50;;
65853;SDS011;52627;48.838;2.402;2023-01-29T03:39:35;31.00;;;16.60;;
65853;SDS011;52627;48.838;2.402;2023-01-29T03:42:16;31.40;;;17.30;;
65853;SDS011;52627;48.838;2.402;2023-01-29T03:45:21;37.90;;;17.70;;
65853;SDS011;52627;48.838;2.402;2023-01-29T03:50:56;34.90;;;16.40;;
65853;SDS011;52627;48.838;2.402;2023-01-29T03:53:46;31.00;;;15.70;;
65853;SDS011;52627;48.838;2.402;2023-01-29T03:56:29;36.20;;;17.20;;
65853;SDS011;52627;48.838;2.402;2023-01-29T04:01:54;33.60;;;16.40;;
65853;SDS011;52627;48.838;2.402;2023-01-29T04:04:30;36.80;;;18.30;;
65853;SDS011;52627;48.838;2.402;2023-01-29T04:07:10;34.00;;;16.60;;
65853;SDS011;52627;48.838;2.402;2023-01-29T04:09:48;31.60;;;16.70;;
65853;SDS011;52627;48.838;2.402;2023-01-29T04:12:23;33.70;;;16.00;;
65853;SDS011;52627;48.838;2.402;2023-01-29T04:14:53;33.70;;;16.50;;
65853;SDS011;52627;48.838;2.402;2023-01-29T04:17:33;32.30;;;16.20;;
65853;SDS011;52627;48.838;2.402;2023-01-29T04:20:04;36.30;;;17.40;;
65853;SDS011;52627;48.838;2.402;2023-01-29T04:22:38;33.40;;;16.60;;
65853;SDS011;52627;48.838;2.402;2023-01-29T04:25:09;35.50;;;16.00;;
65853;SDS011;52627;48.838;2.402;2023-01-29T04:33:34;34.60;;;16.00;;
65853;SDS011;52627;48.838;2.402;2023-01-29T04:36:37;31.90;;;16.00;;
65853;SDS011;52627;48.838;2.402;2023-01-29T04:42:09;33.70;;;15.60;;
65853;SDS011;52627;48.838;2.402;2023-01-29T04:45:00;36.60;;;16.60;;
65853;SDS011;52627;48.838;2.402;2023-01-29T04:47:47;34.30;;;16.90;;
65853;SDS011;52627;48.838;2.402;2023-01-29T04:50:43;35.40;;;17.10;;
65853;SDS011;52627;48.838;2.402;2023-01-29T04:54:08;35.30;;;16.70;;
65853;SDS011;52627;48.838;2.402;2023-01-29T04:56:52;35.80;;;18.00;;
65853;SDS011;52627;48.838;2.402;2023-01-29T04:59:49;34.70;;;17.60;;
65853;SDS011;52627;48.838;2.402;2023-01-29T05:02:21;32.50;;;16.50;;
65853;SDS011;52627;48.838;2.402;2023-01-29T05:04:51;30.50;;;17.10;;
65853;SDS011;52627;48.838;2.402;2023-01-29T05:07:22;32.90;;;16.40;;
65853;SDS011;52627;48.838;2.402;2023-01-29T05:09:50;32.20;;;16.80;;
65853;SDS011;52627;48.838;2.402;2023-01-29T05:12:18;36.10;;;16.80;;
65853;SDS011;52627;48.838;2.402;2023-01-29T05:14:46;35.40;;;17.10;;
65853;SDS011;52627;48.838;2.402;2023-01-29T05:17:17;35.70;;;17.90;;
65853;SDS011;52627;48.838;2.402;2023-01-29T05:19:46;36.80;;;17.30;;
65853;SDS011;52627;48.838;2.402;2023-01-29T05:22:15;36.90;;;17.70;;
65853;SDS011;52627;48.838;2.402;2023-01-29T05:24:44;33.20;;;17.40;;
65853;SDS011;52627;48.838;2.402;2023-01-29T05:27:20;31.70;;;16.90;;
65853;SDS011;52627;48.838;2.402;2023-01-29T05:30:09;36.30;;;18.10;;
65853;SDS011;52627;48.838;2.402;2023-01-29T05:32:37;38.00;;;19.20;;
65853;SDS011;52627;48.838;2.402;2023-01-29T05:35:06;36.20;;;16.90;;
65853;SDS011;52627;48.838;2.402;2023-01-29T05:37:33;34.80;;;17.30;;
65853;SDS011;52627;48.838;2.402;2023-01-29T05:40:01;34.30;;;17.50;;
65853;SDS011;52627;48.838;2.402;2023-01-29T05:42:28;34.60;;;17.60;;
65853;SDS011;52627;48.838;2.402;2023-01-29T05:44:56;34.30;;;18.00;;
65853;SDS011;52627;48.838;2.402;2023-01-29T05:47:23;33.50;;;18.10;;
65853;SDS011;52627;48.838;2.402;2023-01-29T05:49:50;31.60;;;17.20;;
65853;SDS011;52627;48.838;2.402;2023-01-29T05:52:18;37.90;;;19.20;;
65853;SDS011;52627;48.838;2.402;2023-01-29T05:54:45;33.40;;;17.70;;
65853;SDS011;52627;48.838;2.402;2023-01-29T05:57:13;33.50;;;17.20;;
65853;SDS011;52627;48.838;2.402;2023-01-29T05:59:40;38.10;;;18.40;;
65853;SDS011;52627;48.838;2.402;2023-01-29T06:02:08;36.20;;;18.00;;
65853;SDS011;52627;48.838;2.402;2023-01-29T06:04:35;36.30;;;17.90;;
65853;SDS011;52627;48.838;2.402;2023-01-29T06:07:03;35.70;;;18.40;;
65853;SDS011;52627;48.838;2.402;2023-01-29T06:09:31;33.20;;;17.90;;
65853;SDS011;52627;48.838;2.402;2023-01-29T06:11:58;31.80;;;15.90;;
65853;SDS011;52627;48.838;2.402;2023-01-29T06:14:26;32.60;;;17.20;;
65853;SDS011;52627;48.838;2.402;2023-01-29T06:16:53;33.70;;;17.70;;
65853;SDS011;52627;48.838;2.402;2023-01-29T06:19:20;34.60;;;18.50;;
65853;SDS011;52627;48.838;2.402;2023-01-29T06:21:48;37.70;;;18.70;;
65853;SDS011;52627;48.838;2.402;2023-01-29T06:24:15;38.20;;;17.50;;
65853;SDS011;52627;48.838;2.402;2023-01-29T06:26:43;36.10;;;18.90;;
65853;SDS011;52627;48.838;2.402;2023-01-29T06:29:10;34.10;;;18.70;;
65853;SDS011;52627;48.838;2.402;2023-01-29T06:31:38;34.80;;;17.50;;
65853;SDS011;52627;48.838;2.402;2023-01-29T06:34:07;34.10;;;17.70;;
65853;SDS011;52627;48.838;2.402;2023-01-29T06:36:34;33.20;;;16.60;;
65853;SDS011;52627;48.838;2.402;2023-01-29T06:39:03;34.30;;;18.50;;
65853;SDS011;52627;48.838;2.402;2023-01-29T06:41:30;33.40;;;16.50;;
65853;SDS011;52627;48.838;2.402;2023-01-29T06:43:58;35.40;;;17.60;;
65853;SDS011;52627;48.838;2.402;2023-01-29T06:46:25;33.10;;;16.60;;
65853;SDS011;52627;48.838;2.402;2023-01-29T06:48:53;34.40;;;16.90;;
65853;SDS011;52627;48.838;2.402;2023-01-29T06:51:20;37.40;;;18.60;;
65853;SDS011;52627;48.838;2.402;2023-01-29T06:53:49;37.00;;;17.10;;
65853;SDS011;52627;48.838;2.402;2023-01-29T06:56:16;31.40;;;16.80;;
65853;SDS011;52627;48.838;2.402;2023-01-29T06:58:43;33.70;;;17.50;;
65853;SDS011;52627;48.838;2.402;2023-01-29T07:01:11;34.50;;;16.70;;
65853;SDS011;52627;48.838;2.402;2023-01-29T07:03:59;38.30;;;18.40;;
65853;SDS011;52627;48.838;2.402;2023-01-29T07:06:28;36.50;;;16.60;;
65853;SDS011;52627;48.838;2.402;2023-01-29T07:08:56;29.70;;;16.30;;
65853;SDS011;52627;48.838;2.402;2023-01-29T07:11:23;33.90;;;17.90;;
65853;SDS011;52627;48.838;2.402;2023-01-29T07:13:51;35.30;;;17.50;;
65853;SDS011;52627;48.838;2.402;2023-01-29T07:16:18;33.70;;;16.50;;
65853;SDS011;52627;48.838;2.402;2023-01-29T07:18:46;32.50;;;16.60;;
65853;SDS011;52627;48.838;2.402;2023-01-29T07:21:13;32.30;;;16.80;;
65853;SDS011;52627;48.838;2.402;2023-01-29T07:23:41;33.50;;;17.00;;
65853;SDS011;52627;48.838;2.402;2023-01-29T07:26:09;36.90;;;19.20;;
65853;SDS011;52627;48.838;2.402;2023-01-29T07:28:37;35.10;;;18.10;;
65853;SDS011;52627;48.838;2.402;2023-01-29T07:31:06;33.30;;;17.70;;
65853;SDS011;52627;48.838;2.402;2023-01-29T07:33:34;30.80;;;16.70;;
65853;SDS011;52627;48.838;2.402;2023-01-29T07:36:06;32.10;;;17.80;;
65853;SDS011;52627;48.838;2.402;2023-01-29T07:38:34;36.40;;;17.70;;
65853;SDS011;52627;48.838;2.402;2023-01-29T07:41:02;34.60;;;17.80;;
65853;SDS011;52627;48.838;2.402;2023-01-29T07:43:29;34.10;;;17.20;;
65853;SDS011;52627;48.838;2.402;2023-01-29T07:46:01;37.30;;;19.30;;
65853;SDS011;52627;48.838;2.402;2023-01-29T07:48:29;34.80;;;17.80;;
65853;SDS011;52627;48.838;2.402;2023-01-29T07:50:57;34.80;;;17.70;;
65853;SDS011;52627;48.838;2.402;2023-01-29T07:53:26;35.40;;;18.50;;
65853;SDS011;52627;48.838;2.402;2023-01-29T07:55:54;36.10;;;17.70;;
65853;SDS011;52627;48.838;2.402;2023-01-29T07:58:22;37.50;;;18.30;;
65853;SDS011;52627;48.838;2.402;2023-01-29T08:00:49;38.70;;;18.10;;
65853;SDS011;52627;48.838;2.402;2023-01-29T08:03:17;38.80;;;18.50;;
65853;SDS011;52627;48.838;2.402;2023-01-29T08:05:48;39.30;;;20.30;;
65853;SDS011;52627;48.838;2.402;2023-01-29T08:08:16;38.80;;;19.50;;
65853;SDS011;52627;48.838;2.402;2023-01-29T08:10:43;39.40;;;20.40;;
65853;SDS011;52627;48.838;2.402;2023-01-29T08:13:11;39.70;;;20.60;;
65853;SDS011;52627;48.838;2.402;2023-01-29T08:15:41;38.00;;;21.10;;
65853;SDS011;52627;48.838;2.402;2023-01-29T08:18:12;41.80;;;21.50;;
65853;SDS011;52627;48.838;2.402;2023-01-29T08:20:40;41.60;;;22.90;;
65853;SDS011;52627;48.838;2.402;2023-01-29T08:23:14;35.70;;;20.80;;
65853;SDS011;52627;48.838;2.402;2023-01-29T08:25:42;42.10;;;22.40;;
65853;SDS011;52627;48.838;2.402;2023-01-29T08:28:10;41.70;;;21.90;;
65853;SDS011;52627;48.838;2.402;2023-01-29T08:30:38;39.10;;;23.20;;
65853;SDS011;52627;48.838;2.402;2023-01-29T08:33:06;40.30;;;21.20;;
65853;SDS011;52627;48.838;2.402;2023-01-29T08:35:33;41.80;;;21.30;;
65853;SDS011;52627;48.838;2.402;2023-01-29T08:38:03;39.70;;;22.90;;
65853;SDS011;52627;48.838;2.402;2023-01-29T08:40:32;42.80;;;22.10;;
65853;SDS011;52627;48.838;2.402;2023-01-29T08:43:04;40.60;;;21.20;;
65853;SDS011;52627;48.838;2.402;2023-01-29T08:45:38;41.20;;;22.50;;
65853;SDS011;52627;48.838;2.402;2023-01-29T08:48:08;43.30;;;21.00;;
65853;SDS011;52627;48.838;2.402;2023-01-29T08:50:36;41.70;;;22.00;;
65853;SDS011;52627;48.838;2.402;2023-01-29T08:53:05;38.00;;;21.50;;
65853;SDS011;52627;48.838;2.402;2023-01-29T08:55:36;38.20;;;21.80;;
65853;SDS011;52627;48.838;2.402;2023-01-29T08:58:06;43.40;;;22.30;;
65853;SDS011;52627;48.838;2.402;2023-01-29T09:00:34;41.20;;;21.80;;
65853;SDS011;52627;48.838;2.402;2023-01-29T09:03:01;43.00;;;23.00;;
65853;SDS011;52627;48.838;2.402;2023-01-29T09:05:29;43.80;;;22.80;;
65853;SDS011;52627;48.838;2.402;2023-01-29T09:07:57;42.90;;;23.30;;
65853;SDS011;52627;48.838;2.402;2023-01-29T09:10:25;43.40;;;22.80;;
65853;SDS011;52627;48.838;2.402;2023-01-29T09:12:53;41.40;;;21.60;;
65853;SDS011;52627;48.838;2.402;2023-01-29T09:15:21;40.70;;;20.30;;
65853;SDS011;52627;48.838;2.402;2023-01-29T09:17:48;41.60;;;21.90;;
65853;SDS011;52627;48.838;2.402;2023-01-29T09:20:16;39.70;;;22.50;;
65853;SDS011;52627;48.838;2.402;2023-01-29T09:22:45;42.10;;;21.20;;
65853;SDS011;52627;48.838;2.402;2023-01-29T09:25:12;46.20;;;22.10;;
65853;SDS011;52627;48.838;2.402;2023-01-29T09:27:41;45.60;;;21.50;;
65853;SDS011;52627;48.838;2.402;2023-01-29T09:30:09;45.00;;;21.80;;
65853;SDS011;52627;48.838;2.402;2023-01-29T09:32:37;44.60;;;22.90;;
65853;SDS011;52627;48.838;2.402;2023-01-29T09:35:21;40.40;;;19.10;;
65853;SDS011;52627;48.838;2.402;2023-01-29T09:37:50;38.70;;;20.40;;
65853;SDS011;52627;48.838;2.402;2023-01-29T09:43:25;41.80;;;22.60;;
65853;SDS011;52627;48.838;2.402;2023-01-29T09:46:06;40.40;;;22.40;;
65853;SDS011;52627;48.838;2.402;2023-01-29T09:48:41;40.70;;;22.50;;
65853;SDS011;52627;48.838;2.402;2023-01-29T09:51:17;40.80;;;22.20;;
65853;SDS011;52627;48.838;2.402;2023-01-29T09:54:20;41.90;;;22.60;;
65853;SDS011;52627;48.838;2.402;2023-01-29T09:56:52;40.60;;;22.10;;
65853;SDS011;52627;48.838;2.402;2023-01-29T09:59:26;39.40;;;23.20;;
65853;SDS011;52627;48.838;2.402;2023-01-29T10:02:04;41.60;;;22.20;;
65853;SDS011;52627;48.838;2.402;2023-01-29T10:04:51;37.10;;;21.60;;
65853;SDS011;52627;48.838;2.402;2023-01-29T10:13:28;40.10;;;23.60;;
65853;SDS011;52627;48.838;2.402;2023-01-29T10:16:14;39.60;;;23.80;;
65853;SDS011;52627;48.838;2.402;2023-01-29T10:18:57;37.10;;;22.40;;
65853;SDS011;52627;48.838;2.402;2023-01-29T10:24:18;36.50;;;22.60;;
65853;SDS011;52627;48.838;2.402;2023-01-29T10:26:54;39.00;;;23.00;;
65853;SDS011;52627;48.838;2.402;2023-01-29T10:29:22;36.20;;;22.50;;
65853;SDS011;52627;48.838;2.402;2023-01-29T10:31:55;35.00;;;22.60;;
65853;SDS011;52627;48.838;2.402;2023-01-29T10:34:40;37.50;;;22.00;;
65853;SDS011;52627;48.838;2.402;2023-01-29T10:37:15;39.20;;;22.50;;
65853;SDS011;52627;48.838;2.402;2023-01-29T10:39:45;33.60;;;21.50;;
65853;SDS011;52627;48.838;2.402;2023-01-29T10:42:18;35.20;;;22.00;;
65853;SDS011;52627;48.838;2.402;2023-01-29T10:51:00;31.30;;;20.80;;
65853;SDS011;52627;48.838;2.402;2023-01-29T10:53:50;34.20;;;21.60;;
65853;SDS011;52627;48.838;2.402;2023-01-29T10:57:12;36.00;;;21.70;;
65853;SDS011;52627;48.838;2.402;2023-01-29T11:02:44;34.80;;;21.50;;
65853;SDS011;52627;48.838;2.402;2023-01-29T11:05:35;33.50;;;21.20;;
65853;SDS011;52627;48.838;2.402;2023-01-29T11:08:16;32.00;;;21.00;;
65853;SDS011;52627;48.838;2.402;2023-01-29T11:13:54;32.80;;;20.60;;
65853;SDS011;52627;48.838;2.402;2023-01-29T11:16:26;35.60;;;21.40;;
65853;SDS011;52627;48.838;2.402;2023-01-29T11:18:58;34.40;;;21.30;;
65853;SDS011;52627;48.838;2.402;2023-01-29T11:21:28;29.30;;;20.30;;
65853;SDS011;52627;48.838;2.402;2023-01-29T11:24:13;31.90;;;20.40;;
65853;SDS011;52627;48.838;2.402;2023-01-29T11:26:48;29.90;;;20.10;;
65853;SDS011;52627;48.838;2.402;2023-01-29T11:31:57;32.40;;;19.70;;
65853;SDS011;52627;48.838;2.402;2023-01-29T11:34:26;30.80;;;19.60;;
65853;SDS011;52627;48.838;2.402;2023-01-29T11:37:02;30.20;;;20.40;;
65853;SDS011;52627;48.838;2.402;2023-01-29T11:39:31;28.50;;;19.20;;
65853;SDS011;52627;48.838;2.402;2023-01-29T11:42:00;27.70;;;19.00;;
65853;SDS011;52627;48.838;2.402;2023-01-29T11:44:41;27.70;;;19.10;;
65853;SDS011;52627;48.838;2.402;2023-01-29T11:47:20;30.50;;;18.60;;
65853;SDS011;52627;48.838;2.402;2023-01-29T11:49:56;27.40;;;18.00;;
65853;SDS011;52627;48.838;2.402;2023-01-29T11:52:35;30.40;;;20.10;;
65853;SDS011;52627;48.838;2.402;2023-01-29T11:55:06;31.70;;;19.50;;
65853;SDS011;52627;48.838;2.402;2023-01-29T11:57:42;28.70;;;18.40;;
65853;SDS011;52627;48.838;2.402;2023-01-29T12:00:20;27.90;;;17.80;;
65853;SDS011;52627;48.838;2.402;2023-01-29T12:03:06;26.70;;;17.70;;
65853;SDS011;52627;48.838;2.402;2023-01-29T12:05:53;16.20;;;10.30;;
65853;SDS011;52627;48.838;2.402;2023-01-29T12:08:22;13.00;;;8.30;;
65853;SDS011;52627;48.838;2.402;2023-01-29T12:10:51;12.80;;;7.80;;
65853;SDS011;52627;48.838;2.402;2023-01-29T12:13:34;13.10;;;6.90;;
65853;SDS011;52627;48.838;2.402;2023-01-29T12:18:52;11.80;;;6.80;;
65853;SDS011;52627;48.838;2.402;2023-01-29T12:21:31;12.20;;;7.10;;
65853;SDS011;52627;48.838;2.402;2023-01-29T12:24:34;16.20;;;7.60;;
65853;SDS011;52627;48.838;2.402;2023-01-29T12:27:13;14.30;;;7.40;;
65853;SDS011;52627;48.838;2.402;2023-01-29T12:30:11;12.70;;;7.70;;
65853;SDS011;52627;48.838;2.402;2023-01-29T12:32:43;13.00;;;7.20;;
65853;SDS011;52627;48.838;2.402;2023-01-29T12:35:40;11.80;;;8.00;;
65853;SDS011;52627;48.838;2.402;2023-01-29T12:38:17;11.60;;;7.10;;
65853;SDS011;52627;48.838;2.402;2023-01-29T12:41:07;11.50;;;7.50;;
65853;SDS011;52627;48.838;2.402;2023-01-29T12:43:52;13.00;;;7.60;;
65853;SDS011;52627;48.838;2.402;2023-01-29T12:46:26;12.30;;;6.90;;
65853;SDS011;52627;48.838;2.402;2023-01-29T12:48:58;9.90;;;6.50;;
65853;SDS011;52627;48.838;2.402;2023-01-29T12:51:36;13.30;;;6.30;;
65853;SDS011;52627;48.838;2.402;2023-01-29T12:54:18;9.70;;;5.90;;
65853;SDS011;52627;48.838;2.402;2023-01-29T12:56:52;11.30;;;6.10;;
65853;SDS011;52627;48.838;2.402;2023-01-29T12:59:39;9.90;;;6.20;;
65853;SDS011;52627;48.838;2.402;2023-01-29T13:05:18;11.90;;;6.20;;
65853;SDS011;52627;48.838;2.402;2023-01-29T13:07:57;11.70;;;5.10;;
65853;SDS011;52627;48.838;2.402;2023-01-29T13:10:36;9.60;;;5.50;;
65853;SDS011;52627;48.838;2.402;2023-01-29T13:13:27;8.50;;;5.00;;
65853;SDS011;52627;48.838;2.402;2023-01-29T13:15:58;9.30;;;5.50;;
65853;SDS011;52627;48.838;2.402;2023-01-29T13:18:43;11.40;;;5.60;;
65853;SDS011;52627;48.838;2.402;2023-01-29T13:21:17;8.90;;;5.00;;
65853;SDS011;52627;48.838;2.402;2023-01-29T13:23:52;9.50;;;5.40;;
65853;SDS011;52627;48.838;2.402;2023-01-29T13:26:22;8.00;;;5.00;;
65853;SDS011;52627;48.838;2.402;2023-01-29T13:28:50;8.20;;;4.60;;
65853;SDS011;52627;48.838;2.402;2023-01-29T13:31:35;10.10;;;5.00;;
65853;SDS011;52627;48.838;2.402;2023-01-29T13:34:12;11.40;;;5.70;;
65853;SDS011;52627;48.838;2.402;2023-01-29T13:36:44;6.80;;;4.30;;
65853;SDS011;52627;48.838;2.402;2023-01-29T13:42:15;8.90;;;4.80;;
65853;SDS011;52627;48.838;2.402;2023-01-29T13:44:47;9.00;;;4.70;;
65853;SDS011;52627;48.838;2.402;2023-01-29T13:47:27;8.10;;;4.30;;
65853;SDS011;52627;48.838;2.402;2023-01-29T13:50:06;9.60;;;4.20;;
65853;SDS011;52627;48.838;2.402;2023-01-29T13:52:38;7.40;;;4.30;;
65853;SDS011;52627;48.838;2.402;2023-01-29T14:10:41;8.70;;;4.60;;
65853;SDS011;52627;48.838;2.402;2023-01-29T14:18:26;7.70;;;4.70;;
65853;SDS011;52627;48.838;2.402;2023-01-29T14:21:06;8.20;;;4.80;;
65853;SDS011;52627;48.838;2.402;2023-01-29T14:23:47;8.40;;;5.80;;
65853;SDS011;52627;48.838;2.402;2023-01-29T14:29:29;9.40;;;5.50;;
65853;SDS011;52627;48.838;2.402;2023-01-29T14:32:13;9.30;;;5.20;;
65853;SDS011;52627;48.838;2.402;2023-01-29T14:34:50;9.20;;;5.80;;
65853;SDS011;52627;48.838;2.402;2023-01-29T14:37:26;10.10;;;5.50;;
65853;SDS011;52627;48.838;2.402;2023-01-29T14:39:57;10.50;;;6.00;;
65853;SDS011;52627;48.838;2.402;2023-01-29T14:42:38;8.70;;;5.90;;
65853;SDS011;52627;48.838;2.402;2023-01-29T14:47:55;7.10;;;5.10;;
65853;SDS011;52627;48.838;2.402;2023-01-29T14:56:34;10.80;;;5.70;;
65853;SDS011;52627;48.838;2.402;2023-01-29T14:59:17;8.50;;;4.90;;
65853;SDS011;52627;48.838;2.402;2023-01-29T15:01:52;9.80;;;5.40;;
65853;SDS011;52627;48.838;2.402;2023-01-29T15:04:28;8.70;;;5.30;;
65853;SDS011;52627;48.838;2.402;2023-01-29T15:07:11;7.60;;;5.00;;
65853;SDS011;52627;48.838;2.402;2023-01-29T15:12:49;7.90;;;5.00;;
65853;SDS011;52627;48.838;2.402;2023-01-29T15:15:48;9.10;;;5.30;;
65853;SDS011;52627;48.838;2.402;2023-01-29T15:18:33;9.40;;;5.10;;
65853;SDS011;52627;48.838;2.402;2023-01-29T15:21:17;8.10;;;5.60;;
65853;SDS011;52627;48.838;2.402;2023-01-29T15:23:46;6.70;;;4.80;;
65853;SDS011;52627;48.838;2.402;2023-01-29T15:28:56;7.00;;;4.70;;
65853;SDS011;52627;48.838;2.402;2023-01-29T15:31:30;7.30;;;4.50;;
65853;SDS011;52627;48.838;2.402;2023-01-29T15:34:03;7.20;;;4.70;;
65853;SDS011;52627;48.838;2.402;2023-01-29T15:36:32;11.10;;;4.80;;
65853;SDS011;52627;48.838;2.402;2023-01-29T15:39:22;9.60;;;5.80;;
65853;SDS011;52627;48.838;2.402;2023-01-29T15:42:09;11.30;;;6.60;;
65853;SDS011;52627;48.838;2.402;2023-01-29T15:44:44;7.40;;;5.40;;
65853;SDS011;52627;48.838;2.402;2023-01-29T15:47:13;7.90;;;5.60;;
65853;SDS011;52627;48.838;2.402;2023-01-29T15:49:41;8.80;;;6.30;;
65853;SDS011;52627;48.838;2.402;2023-01-29T15:52:21;11.00;;;6.90;;
65853;SDS011;52627;48.838;2.402;2023-01-29T15:54:51;11.70;;;6.20;;
65853;SDS011;52627;48.838;2.402;2023-01-29T15:57:22;9.80;;;6.20;;
65853;SDS011;52627;48.838;2.402;2023-01-29T15:59:53;10.30;;;6.90;;
65853;SDS011;52627;48.838;2.402;2023-01-29T16:02:34;10.90;;;6.60;;
65853;SDS011;52627;48.838;2.402;2023-01-29T16:05:09;9.90;;;6.10;;
65853;SDS011;52627;48.838;2.402;2023-01-29T16:07:39;8.20;;;5.40;;
65853;SDS011;52627;48.838;2.402;2023-01-29T16:12:47;8.70;;;5.80;;
65853;SDS011;52627;48.838;2.402;2023-01-29T16:15:25;9.20;;;5.90;;
65853;SDS011;52627;48.838;2.402;2023-01-29T16:18:02;8.90;;;5.90;;
65853;SDS011;52627;48.838;2.402;2023-01-29T16:20:43;7.40;;;5.50;;
65853;SDS011;52627;48.838;2.402;2023-01-29T16:23:22;11.60;;;5.50;;
65853;SDS011;52627;48.838;2.402;2023-01-29T16:25:51;8.90;;;6.30;;
65853;SDS011;52627;48.838;2.402;2023-01-29T16:28:19;10.80;;;6.30;;
65853;SDS011;52627;48.838;2.402;2023-01-29T16:30:54;10.70;;;6.80;;
65853;SDS011;52627;48.838;2.402;2023-01-29T16:33:43;9.90;;;6.30;;
65853;SDS011;52627;48.838;2.402;2023-01-29T16:36:16;12.70;;;8.20;;
65853;SDS011;52627;48.838;2.402;2023-01-29T16:38:50;12.70;;;8.70;;
65853;SDS011;52627;48.838;2.402;2023-01-29T16:43:50;13.30;;;8.20;;
65853;SDS011;52627;48.838;2.402;2023-01-29T16:48:51;13.20;;;7.30;;
65853;SDS011;52627;48.838;2.402;2023-01-29T16:54:13;13.00;;;8.00;;
65853;SDS011;52627;48.838;2.402;2023-01-29T16:56:52;12.60;;;8.10;;
65853;SDS011;52627;48.838;2.402;2023-01-29T16:59:28;11.30;;;8.90;;
65853;SDS011;52627;48.838;2.402;2023-01-29T17:01:59;13.40;;;8.80;;
65853;SDS011;52627;48.838;2.402;2023-01-29T17:04:26;13.30;;;8.30;;
65853;SDS011;52627;48.838;2.402;2023-01-29T17:06:57;11.10;;;8.10;;
65853;SDS011;52627;48.838;2.402;2023-01-29T17:09:28;13.20;;;7.80;;
65853;SDS011;52627;48.838;2.402;2023-01-29T17:12:02;12.90;;;8.00;;